createdAt,value
2018-12-08T00:00:14.062Z,75.73
2018-12-08T00:02:44.083Z,75.53
2018-12-08T00:05:13.948Z,75.92
2018-12-08T00:07:44.125Z,76.09
2018-12-08T00:10:13.977Z,75.97
2018-12-08T00:12:43.662Z,75.59
2018-12-08T00:15:13.451Z,75.78
2018-12-08T00:17:43.471Z,76.18
2018-12-08T00:20:16.311Z,76.53
2018-12-08T00:22:46.287Z,76.54
2018-12-08T00:25:16.520Z,76.59
2018-12-08T00:27:46.192Z,76.93
2018-12-08T00:30:52.569Z,76.29
2018-12-08T00:33:25.267Z,76.76
2018-12-08T00:35:55.829Z,75.78
2018-12-08T00:38:25.620Z,75.30
2018-12-08T00:40:55.661Z,75.23
2018-12-08T00:43:25.433Z,75.27
2018-12-08T00:45:55.039Z,75.35
2018-12-08T00:48:25.147Z,75.34
2018-12-08T00:50:54.972Z,75.98
2018-12-08T00:53:24.728Z,75.87
2018-12-08T00:55:54.799Z,76.11
2018-12-08T00:58:24.711Z,76.24
2018-12-08T01:00:54.283Z,76.26
2018-12-08T01:03:23.941Z,75.72
2018-12-08T01:05:53.880Z,76.09
2018-12-08T01:08:23.895Z,75.96
2018-12-08T01:10:54.311Z,75.89
2018-12-08T01:13:24.822Z,75.97
2018-12-08T01:15:54.889Z,76.13
2018-12-08T01:18:25.261Z,75.82
2018-12-08T01:20:56.154Z,75.73
2018-12-08T01:23:26.118Z,75.24
2018-12-08T01:25:56.059Z,74.77
2018-12-08T01:28:28.989Z,74.63
2018-12-08T01:30:58.817Z,74.48
2018-12-08T01:33:29.157Z,73.54
2018-12-08T01:35:59.094Z,73.32
2018-12-08T01:38:32.120Z,72.87
2018-12-08T01:41:02.062Z,73.29
2018-12-08T01:43:32.599Z,72.75
2018-12-08T01:46:04.209Z,72.79
2018-12-08T01:48:37.718Z,72.71
2018-12-08T01:51:09.667Z,72.81
2018-12-08T01:53:40.110Z,73.00
2018-12-08T01:56:10.336Z,73.61
2018-12-08T01:58:43.777Z,73.52
2018-12-08T02:01:13.480Z,73.83
2018-12-08T02:03:46.964Z,73.72
2018-12-08T02:06:16.583Z,73.82
2018-12-08T02:08:46.777Z,74.08
2018-12-08T02:11:24.677Z,74.21
2018-12-08T02:13:47.054Z,74.15
2018-12-08T02:16:17.740Z,74.35
2018-12-08T02:18:47.280Z,74.36
2018-12-08T02:21:16.912Z,74.01
2018-12-08T02:23:46.708Z,74.47
2018-12-08T02:26:16.227Z,74.30
2018-12-08T02:28:46.167Z,73.91
2018-12-08T02:31:15.743Z,74.37
2018-12-08T02:33:45.602Z,74.10
2018-12-08T02:36:20.568Z,73.79
2018-12-08T02:38:50.946Z,74.16
2018-12-08T02:41:22.426Z,74.70
2018-12-08T02:43:52.804Z,75.04
2018-12-08T02:46:23.061Z,75.38
2018-12-08T02:48:52.483Z,75.71
2018-12-08T02:51:23.204Z,75.47
2018-12-08T02:53:53.250Z,75.72
2018-12-08T02:56:23.428Z,75.64
2018-12-08T02:58:56.045Z,75.26
2018-12-08T03:01:26.436Z,75.17
2018-12-08T03:03:56.615Z,74.93
2018-12-08T03:06:32.493Z,74.42
2018-12-08T03:09:02.569Z,74.38
2018-12-08T03:11:32.859Z,74.18
2018-12-08T03:14:02.502Z,73.66
2018-12-08T03:16:32.339Z,72.77
2018-12-08T03:19:02.555Z,73.14
2018-12-08T03:21:32.622Z,72.84
2018-12-08T03:24:03.080Z,72.42
2018-12-08T03:26:33.957Z,72.04
2018-12-08T03:29:04.052Z,72.08
2018-12-08T03:31:34.483Z,71.60
2018-12-08T03:34:05.042Z,71.65
2018-12-08T03:36:34.767Z,71.34
2018-12-08T03:39:05.552Z,71.13
2018-12-08T03:41:35.402Z,70.94
2018-12-08T03:44:04.951Z,70.92
2018-12-08T03:46:35.485Z,70.97
2018-12-08T03:49:05.691Z,70.50
2018-12-08T03:51:35.773Z,70.30
2018-12-08T03:54:09.941Z,70.02
2018-12-08T03:56:40.047Z,70.34
2018-12-08T03:59:12.814Z,70.23
2018-12-08T04:01:45.527Z,69.98
2018-12-08T04:04:15.725Z,70.16
2018-12-08T04:06:45.835Z,70.25
2018-12-08T04:09:16.060Z,70.09
2018-12-08T04:11:46.080Z,70.78
2018-12-08T04:14:19.006Z,70.66
2018-12-08T04:16:49.350Z,70.44
2018-12-08T04:19:19.438Z,70.38
2018-12-08T04:21:49.174Z,70.78
2018-12-08T04:24:19.023Z,71.06
2018-12-08T04:26:49.108Z,70.87
2018-12-08T04:29:18.986Z,70.17
2018-12-08T04:31:51.522Z,70.32
2018-12-08T04:34:22.062Z,70.07
2018-12-08T04:36:51.820Z,70.13
2018-12-08T04:39:21.794Z,70.45
2018-12-08T04:41:51.834Z,70.51
2018-12-08T04:44:21.622Z,70.31
2018-12-08T04:46:52.255Z,70.66
2018-12-08T04:49:24.946Z,70.98
2018-12-08T04:51:54.741Z,71.40
2018-12-08T04:54:24.411Z,71.25
2018-12-08T04:56:54.443Z,71.35
2018-12-08T04:59:24.748Z,71.29
2018-12-08T05:01:58.101Z,70.93
2018-12-08T05:04:27.640Z,71.14
2018-12-08T05:06:58.246Z,71.13
2018-12-08T05:09:28.050Z,71.42
2018-12-08T05:11:57.894Z,71.73
2018-12-08T05:14:28.264Z,71.13
2018-12-08T05:16:58.774Z,71.54
2018-12-08T05:19:28.812Z,71.55
2018-12-08T05:22:01.201Z,71.20
2018-12-08T05:24:30.996Z,71.27
2018-12-08T05:27:00.880Z,71.49
2018-12-08T05:29:31.358Z,70.84
2018-12-08T05:32:01.664Z,71.11
2018-12-08T05:34:31.530Z,71.54
2018-12-08T05:37:01.388Z,71.35
2018-12-08T05:39:33.775Z,71.46
2018-12-08T05:42:06.420Z,71.73
2018-12-08T05:44:36.181Z,71.47
2018-12-08T05:47:08.757Z,71.22
2018-12-08T05:49:39.869Z,70.82
2018-12-08T05:52:10.119Z,70.65
2018-12-08T05:54:40.894Z,71.11
2018-12-08T05:57:11.005Z,70.90
2018-12-08T05:59:41.489Z,71.27
2018-12-08T06:02:11.429Z,71.17
2018-12-08T06:04:41.273Z,71.04
2018-12-08T06:07:12.404Z,71.13
2018-12-08T06:09:42.127Z,71.27
2018-12-08T06:12:11.902Z,71.29
2018-12-08T06:14:44.559Z,71.41
2018-12-08T06:17:15.071Z,71.31
2018-12-08T06:19:45.275Z,70.87
2018-12-08T06:22:15.958Z,71.20
2018-12-08T06:24:48.181Z,70.77
2018-12-08T06:27:52.214Z,70.80
2018-12-08T06:30:23.465Z,70.86
2018-12-08T06:32:53.551Z,70.85
2018-12-08T06:35:23.483Z,70.98
2018-12-08T06:37:56.959Z,70.72
2018-12-08T06:40:29.307Z,70.87
2018-12-08T06:42:57.914Z,70.86
2018-12-08T06:45:27.859Z,70.89
2018-12-08T06:47:59.767Z,71.32
2018-12-08T06:50:29.650Z,71.60
2018-12-08T06:53:00.922Z,71.75
2018-12-08T06:55:29.575Z,71.89
2018-12-08T06:57:59.502Z,72.19
2018-12-08T07:00:29.814Z,72.47
2018-12-08T07:02:59.909Z,72.59
2018-12-08T07:05:30.075Z,72.88
2018-12-08T07:08:02.685Z,73.28
2018-12-08T07:10:34.251Z,73.26
2018-12-08T07:13:10.925Z,77.29
2018-12-08T07:15:48.282Z,73.92
2018-12-08T07:18:27.159Z,73.20
2018-12-08T07:20:58.784Z,73.49
2018-12-08T07:23:30.561Z,73.62
2018-12-08T07:26:01.105Z,74.08
2018-12-08T07:28:30.852Z,74.31
2018-12-08T07:31:04.300Z,75.03
2018-12-08T07:33:37.347Z,75.18
2018-12-08T07:36:14.392Z,75.77
2018-12-08T07:38:44.803Z,76.14
2018-12-08T07:41:20.190Z,76.73
2018-12-08T07:43:57.959Z,76.79
2018-12-08T07:46:28.530Z,77.26
2018-12-08T07:49:01.173Z,77.19
2018-12-08T07:51:31.806Z,77.35
2018-12-08T07:54:05.401Z,77.51
2018-12-08T07:56:35.667Z,77.68
2018-12-08T07:59:17.407Z,77.11
2018-12-08T08:01:47.371Z,77.25
2018-12-08T08:04:18.339Z,77.46
2018-12-08T08:06:49.553Z,77.56
2018-12-08T08:09:19.856Z,77.46
2018-12-08T08:11:52.023Z,77.36
2018-12-08T08:14:23.472Z,77.29
2018-12-08T08:16:56.205Z,77.40
2018-12-08T08:19:24.487Z,77.73
2018-12-08T08:21:59.072Z,77.47
2018-12-08T08:24:33.753Z,77.71
2018-12-08T08:27:06.094Z,77.48
2018-12-08T08:29:38.223Z,77.32
2018-12-08T08:32:06.277Z,77.15
2018-12-08T08:34:40.083Z,77.21
2018-12-08T08:37:13.792Z,77.00
2018-12-08T08:39:46.221Z,76.62
2018-12-08T08:42:18.759Z,76.65
2018-12-08T08:44:52.574Z,76.23
2018-12-08T08:47:24.220Z,76.04
2018-12-08T08:49:57.963Z,75.33
2018-12-08T08:52:32.861Z,75.41
2018-12-08T08:55:03.463Z,75.30
2018-12-08T08:57:33.504Z,75.08
2018-12-08T09:00:04.601Z,74.96
2018-12-08T09:02:35.290Z,74.44
2018-12-08T09:05:05.771Z,74.42
2018-12-08T09:07:36.414Z,74.57
2018-12-08T09:10:10.215Z,74.20
2018-12-08T09:12:39.959Z,73.94
2018-12-08T09:15:10.383Z,73.92
2018-12-08T09:17:40.628Z,73.83
2018-12-08T09:20:11.467Z,73.80
2018-12-08T09:22:41.823Z,74.18
2018-12-08T09:25:12.057Z,74.22
2018-12-08T09:27:45.295Z,74.26
2018-12-08T09:30:15.830Z,74.87
2018-12-08T09:32:45.985Z,74.15
2018-12-08T09:35:16.503Z,74.11
2018-12-08T09:37:46.229Z,74.32
2018-12-08T09:40:19.156Z,74.29
2018-12-08T09:42:52.353Z,74.05
2018-12-08T09:45:22.935Z,74.07
2018-12-08T09:47:52.761Z,74.48
2018-12-08T09:50:23.751Z,74.01
2018-12-08T09:53:15.825Z,74.01
2018-12-08T09:55:48.501Z,73.78
2018-12-08T09:58:21.293Z,73.37
2018-12-08T10:00:51.279Z,73.63
2018-12-08T10:03:21.069Z,73.25
2018-12-08T10:05:50.739Z,73.25
2018-12-08T10:08:21.051Z,73.13
2018-12-08T10:10:51.584Z,72.98
2018-12-08T10:13:24.743Z,72.68
2018-12-08T10:15:55.447Z,72.65
2018-12-08T10:18:26.094Z,72.89
2018-12-08T10:20:56.018Z,72.76
2018-12-08T10:23:26.410Z,72.62
2018-12-08T10:25:56.374Z,72.65
2018-12-08T10:28:26.314Z,72.62
2018-12-08T10:30:56.556Z,72.56
2018-12-08T10:33:28.326Z,73.06
2018-12-08T10:36:00.528Z,72.97
2018-12-08T10:38:31.276Z,73.34
2018-12-08T10:41:01.096Z,73.42
2018-12-08T10:43:34.082Z,74.17
2018-12-08T10:46:01.962Z,74.99
2018-12-08T10:48:39.754Z,76.32
2018-12-08T10:51:13.896Z,76.52
2018-12-08T10:53:41.013Z,77.92
2018-12-08T10:56:13.040Z,77.55
2018-12-08T10:58:42.735Z,77.87
2018-12-08T11:01:24.960Z,77.87
2018-12-08T11:03:54.704Z,78.37
2018-12-08T11:06:25.132Z,78.01
2018-12-08T11:08:56.267Z,78.36
2018-12-08T11:11:26.691Z,78.57
2018-12-08T11:14:02.725Z,78.70
2018-12-08T11:16:30.581Z,78.64
2018-12-08T11:18:59.782Z,79.35
2018-12-08T11:21:31.310Z,79.21
2018-12-08T11:24:01.621Z,78.70
2018-12-08T11:26:32.064Z,78.71
2018-12-08T11:29:02.807Z,78.68
2018-12-08T11:31:33.126Z,78.68
2018-12-08T11:34:03.653Z,78.75
2018-12-08T11:36:33.720Z,80.26
2018-12-08T11:39:03.949Z,80.48
2018-12-08T11:41:33.769Z,81.05
2018-12-08T11:44:03.735Z,81.09
2018-12-08T11:46:33.579Z,80.71
2018-12-08T11:49:03.437Z,81.44
2018-12-08T11:51:33.642Z,81.34
2018-12-08T11:54:03.425Z,81.83
2018-12-08T11:56:33.866Z,81.97
2018-12-08T11:59:04.092Z,82.20
2018-12-08T12:01:34.121Z,82.07
2018-12-08T12:04:04.602Z,81.81
2018-12-08T12:06:34.322Z,82.33
2018-12-08T12:09:04.962Z,81.99
2018-12-08T12:11:35.209Z,81.36
2018-12-08T12:14:05.469Z,81.54
2018-12-08T12:16:35.960Z,81.40
2018-12-08T12:19:06.557Z,81.63
2018-12-08T12:21:36.274Z,81.41
2018-12-08T12:24:06.585Z,81.97
2018-12-08T12:26:39.823Z,82.54
2018-12-08T12:29:09.709Z,82.61
2018-12-08T12:31:40.305Z,82.07
2018-12-08T12:34:10.335Z,81.85
2018-12-08T12:36:40.592Z,82.33
2018-12-08T12:39:10.583Z,82.25
2018-12-08T12:41:40.958Z,82.46
2018-12-08T12:44:11.172Z,82.75
2018-12-08T12:46:41.874Z,82.18
2018-12-08T12:49:11.784Z,81.73
2018-12-08T12:51:41.604Z,81.12
2018-12-08T12:54:12.132Z,81.21
2018-12-08T12:56:42.442Z,80.73
2018-12-08T12:59:12.043Z,80.75
2018-12-08T13:01:42.990Z,80.31
2018-12-08T13:04:13.320Z,79.85
2018-12-08T13:06:43.746Z,79.20
2018-12-08T13:09:13.567Z,79.30
2018-12-08T13:11:44.766Z,79.37
2018-12-08T13:14:14.270Z,78.30
2018-12-08T13:16:44.520Z,77.86
2018-12-08T13:19:14.515Z,77.73
2018-12-08T13:21:44.215Z,77.24
2018-12-08T13:24:14.581Z,76.92
2018-12-08T13:26:45.061Z,76.59
2018-12-08T13:29:14.545Z,75.89
2018-12-08T13:31:45.730Z,75.73
2018-12-08T13:34:29.977Z,75.90
2018-12-08T13:37:00.645Z,76.00
2018-12-08T13:39:31.029Z,75.64
2018-12-08T13:42:04.755Z,74.94
2018-12-08T13:44:42.135Z,74.97
2018-12-08T13:47:12.797Z,74.77
2018-12-08T13:49:42.907Z,75.19
2018-12-08T13:52:14.209Z,76.04
2018-12-08T13:54:51.725Z,76.31
2018-12-08T13:57:21.561Z,76.32
2018-12-08T13:59:58.050Z,75.44
2018-12-08T14:02:29.567Z,75.31
2018-12-08T14:04:59.822Z,75.85
2018-12-08T14:07:30.219Z,75.54
2018-12-08T14:10:00.580Z,75.70
2018-12-08T14:12:31.784Z,75.31
2018-12-08T14:15:03.768Z,75.29
2018-12-08T14:17:31.943Z,74.97
2018-12-08T14:20:33.037Z,74.52
2018-12-08T14:23:04.015Z,74.52
2018-12-08T14:25:34.638Z,74.27
2018-12-08T14:28:05.365Z,74.78
2018-12-08T14:30:35.291Z,74.59
2018-12-08T14:33:06.398Z,74.46
2018-12-08T14:35:36.649Z,74.07
2018-12-08T14:38:07.225Z,74.07
2018-12-08T14:40:37.736Z,74.48
2018-12-08T14:43:10.957Z,74.10
2018-12-08T14:45:41.900Z,74.19
2018-12-08T14:48:12.285Z,74.07
2018-12-08T14:50:41.933Z,73.92
2018-12-08T14:53:12.463Z,73.48
2018-12-08T14:55:43.061Z,73.49
2018-12-08T14:58:12.867Z,73.57
2018-12-08T15:00:43.542Z,73.06
2018-12-08T15:03:14.067Z,72.93
2018-12-08T15:05:45.206Z,73.31
2018-12-08T15:08:16.559Z,73.24
2018-12-08T15:10:46.575Z,73.71
2018-12-08T15:13:16.642Z,73.23
2018-12-08T15:15:46.419Z,73.01
2018-12-08T15:18:21.228Z,73.08
2018-12-08T15:20:53.666Z,73.20
2018-12-08T15:23:24.320Z,73.58
2018-12-08T15:25:54.303Z,73.61
2018-12-08T15:28:24.260Z,73.54
2018-12-08T15:30:56.758Z,72.85
2018-12-08T15:33:26.576Z,73.03
2018-12-08T15:35:56.481Z,73.38
2018-12-08T15:38:31.472Z,73.31
2018-12-08T15:41:01.478Z,73.32
2018-12-08T15:43:31.187Z,73.56
2018-12-08T15:46:01.034Z,73.69
2018-12-08T15:48:30.778Z,74.11
2018-12-08T15:51:00.995Z,74.58
2018-12-08T15:53:31.266Z,74.94
2018-12-08T15:56:01.102Z,75.33
2018-12-08T15:58:31.205Z,75.07
2018-12-08T16:01:01.068Z,75.12
2018-12-08T16:03:31.064Z,75.25
2018-12-08T16:06:01.166Z,75.31
2018-12-08T16:08:30.910Z,74.96
2018-12-08T16:11:00.940Z,74.70
2018-12-08T16:13:30.777Z,74.64
2018-12-08T16:16:00.737Z,74.69
2018-12-08T16:18:33.207Z,74.97
2018-12-08T16:21:04.890Z,74.55
2018-12-08T16:23:34.979Z,74.38
2018-12-08T16:26:07.479Z,74.46
2018-12-08T16:28:38.518Z,75.05
2018-12-08T16:31:11.387Z,76.51
2018-12-08T16:33:41.452Z,77.87
2018-12-08T16:36:12.974Z,78.87
2018-12-08T16:38:43.218Z,79.29
2018-12-08T16:41:16.150Z,79.40
2018-12-08T16:43:43.572Z,78.92
2018-12-08T16:46:13.370Z,77.86
2018-12-08T16:48:47.349Z,77.63
2018-12-08T16:51:14.149Z,77.50
2018-12-08T16:53:45.593Z,77.03
2018-12-08T16:56:16.484Z,76.83
2018-12-08T16:58:47.315Z,76.58
2018-12-08T17:01:18.809Z,76.38
2018-12-08T17:03:49.137Z,76.11
2018-12-08T17:06:20.475Z,75.48
2018-12-08T17:08:51.859Z,75.37
2018-12-08T17:11:22.467Z,74.31
2018-12-08T17:13:52.840Z,74.34
2018-12-08T17:16:23.062Z,73.78
2018-12-08T17:18:53.290Z,73.62
2018-12-08T17:21:23.285Z,73.81
2018-12-08T17:23:53.709Z,73.56
2018-12-08T17:26:23.475Z,73.15
2018-12-08T17:28:56.100Z,74.05
2018-12-08T17:31:27.066Z,73.75
2018-12-08T17:33:57.384Z,73.87
2018-12-08T17:36:27.870Z,73.72
2018-12-08T17:38:58.162Z,73.73
2018-12-08T17:41:29.206Z,73.93
2018-12-08T17:43:59.406Z,74.23
2018-12-08T17:46:32.582Z,73.82
2018-12-08T17:49:03.108Z,73.81
2018-12-08T17:51:33.583Z,74.04
2018-12-08T17:54:04.308Z,73.91
2018-12-08T17:56:34.520Z,74.02
2018-12-08T17:59:04.350Z,73.12
2018-12-08T18:01:34.494Z,73.43
2018-12-08T18:04:05.792Z,73.54
2018-12-08T18:06:36.250Z,73.54
2018-12-08T18:09:07.682Z,73.39
2018-12-08T18:11:38.593Z,73.46
2018-12-08T18:14:09.252Z,73.92
2018-12-08T18:16:39.127Z,73.92
2018-12-08T18:19:11.639Z,74.10
2018-12-08T18:21:39.493Z,74.61
2018-12-08T18:24:10.187Z,74.81
2018-12-08T18:26:40.120Z,74.87
2018-12-08T18:29:10.119Z,74.79
2018-12-08T18:31:40.217Z,74.76
2018-12-08T18:34:10.209Z,74.61
2018-12-08T18:36:39.824Z,74.79
2018-12-08T18:39:09.944Z,75.06
2018-12-08T18:41:39.688Z,75.18
2018-12-08T18:44:09.367Z,75.63
2018-12-08T18:46:40.029Z,75.49
2018-12-08T18:49:10.247Z,75.72
2018-12-08T18:51:41.063Z,75.70
2018-12-08T18:54:11.952Z,75.72
2018-12-08T18:56:41.567Z,75.44
2018-12-08T18:59:11.237Z,75.37
2018-12-08T19:01:40.776Z,75.50
2018-12-08T19:04:11.265Z,74.66
2018-12-08T19:06:41.610Z,74.66
2018-12-08T19:09:11.757Z,74.43
2018-12-08T19:11:42.324Z,73.82
2018-12-08T19:14:12.138Z,73.59
2018-12-08T19:16:43.399Z,73.34
2018-12-08T19:19:13.930Z,73.24
2018-12-08T19:21:43.972Z,73.08
2018-12-08T19:24:14.072Z,73.37
2018-12-08T19:26:45.260Z,73.25
2018-12-08T19:29:16.137Z,73.18
2018-12-08T19:31:46.592Z,73.12
2018-12-08T19:34:16.534Z,73.15
2018-12-08T19:36:46.102Z,73.05
2018-12-08T19:39:16.554Z,73.05
2018-12-08T19:41:47.879Z,73.10
2018-12-08T19:44:21.120Z,73.10
2018-12-08T19:46:51.019Z,72.46
2018-12-08T19:49:21.860Z,72.87
2018-12-08T19:51:51.506Z,72.72
2018-12-08T19:54:22.212Z,72.81
2018-12-08T19:56:51.893Z,72.58
2018-12-08T19:59:22.322Z,72.73
2018-12-08T20:01:53.455Z,72.33
2018-12-08T20:04:23.316Z,72.58
2018-12-08T20:06:53.414Z,72.31
2018-12-08T20:09:24.533Z,72.84
2018-12-08T20:11:54.974Z,73.11
2018-12-08T20:14:25.830Z,73.02
2018-12-08T20:16:55.714Z,72.99
2018-12-08T20:19:25.788Z,73.96
2018-12-08T20:22:00.268Z,73.96
2018-12-08T20:24:31.378Z,75.07
2018-12-08T20:27:02.614Z,75.93
2018-12-08T20:29:33.332Z,76.96
2018-12-08T20:32:05.937Z,77.73
2018-12-08T20:34:37.302Z,78.20
2018-12-08T20:37:07.739Z,78.46
2018-12-08T20:39:37.514Z,78.84
2018-12-08T20:42:07.675Z,80.19
2018-12-08T20:44:38.468Z,81.47
2018-12-08T20:47:11.266Z,82.48
2018-12-08T20:49:41.744Z,83.30
2018-12-08T20:52:11.387Z,84.15
2018-12-08T20:54:41.525Z,85.04
2018-12-08T20:57:11.973Z,85.28
2018-12-08T20:59:42.982Z,85.71
2018-12-08T21:02:12.888Z,86.51
2018-12-08T21:04:42.499Z,86.83
2018-12-08T21:07:12.510Z,86.70
2018-12-08T21:09:42.682Z,86.98
2018-12-08T21:12:12.740Z,86.96
2018-12-08T21:14:42.538Z,87.18
2018-12-08T21:17:12.576Z,87.29
2018-12-08T21:19:42.012Z,87.77
2018-12-08T21:22:11.774Z,87.40
2018-12-08T21:24:41.368Z,87.72
2018-12-08T21:27:11.290Z,87.99
2018-12-08T21:29:41.198Z,88.10
2018-12-08T21:32:11.133Z,88.57
2018-12-08T21:34:40.953Z,88.80
2018-12-08T21:37:12.112Z,89.33
2018-12-08T21:39:41.882Z,89.99
2018-12-08T21:42:11.887Z,89.88
2018-12-08T21:44:42.846Z,90.03
2018-12-08T21:47:12.488Z,90.46
2018-12-08T21:49:42.309Z,90.70
2018-12-08T21:52:12.573Z,90.90
2018-12-08T21:54:42.901Z,90.34
2018-12-08T21:57:12.922Z,90.75
2018-12-08T21:59:42.664Z,90.89
2018-12-08T22:02:12.162Z,91.42
2018-12-08T22:04:41.912Z,91.41
2018-12-08T22:07:12.808Z,91.41
2018-12-08T22:09:43.024Z,91.91
2018-12-08T22:12:12.925Z,91.69
2018-12-08T22:15:01.375Z,92.20
2018-12-08T22:17:31.457Z,91.70
2018-12-08T22:20:04.622Z,91.98
2018-12-08T22:22:34.612Z,91.95
2018-12-08T22:25:04.818Z,92.04
2018-12-08T22:27:34.488Z,91.88
2018-12-08T22:30:04.861Z,91.32
2018-12-08T22:32:34.506Z,91.19
2018-12-08T22:35:07.474Z,91.34
2018-12-08T22:37:37.441Z,90.77
2018-12-08T22:40:08.419Z,90.79
2018-12-08T22:42:40.621Z,89.93
2018-12-08T22:45:08.474Z,89.85
2018-12-08T22:47:38.881Z,89.14
2018-12-08T22:50:09.293Z,89.54
2018-12-08T22:52:39.375Z,88.28
2018-12-08T22:55:11.761Z,88.35
2018-12-08T22:57:41.507Z,88.23
2018-12-08T23:00:48.201Z,91.38
2018-12-08T23:03:18.419Z,86.91
2018-12-08T23:05:48.165Z,87.62
2018-12-08T23:08:17.785Z,88.18
2018-12-08T23:10:47.653Z,86.34
2018-12-08T23:13:17.266Z,86.34
2018-12-08T23:15:47.166Z,86.75
2018-12-08T23:18:17.101Z,86.04
2018-12-08T23:20:47.258Z,84.98
2018-12-08T23:23:20.053Z,82.67
2018-12-08T23:25:50.579Z,81.94
2018-12-08T23:28:20.274Z,81.34
2018-12-08T23:30:53.661Z,81.24
2018-12-08T23:33:23.578Z,81.21
2018-12-08T23:35:53.318Z,81.41
2018-12-08T23:38:23.099Z,81.52
2018-12-08T23:40:52.930Z,81.54
2018-12-08T23:43:22.900Z,82.08
2018-12-08T23:45:55.253Z,83.14
2018-12-08T23:48:22.724Z,83.14
2018-12-08T23:50:52.477Z,83.71
2018-12-08T23:53:22.063Z,84.67
2018-12-08T23:55:54.622Z,85.07
2018-12-08T23:58:24.597Z,85.65
